Strona główna
METAR-TAF:

METAR-TAF

Lotnisko :

Poznań, Polska

Port lotniczy Poznań-Ławica

Szerokość geograficzna: 52-25N, Długość geograficzna: 016-50E, wysokość: 86 m

Aktualna obserwacja pogody

Raport powstał 20 minut temu, godzina 17:00 UTC
Wiatr 7 kt od północ
Temperatura 22°C
Wilgotność 50%
Ciśnienie 1029 hPa
Widzialność 10 km lub więcej
Brak chmur poniżej 1500 m i brak chmur cumulonimbus

METAR: EPPO 191700Z 35007KT CAVOK 22/11 Q1029

czas: 19:20 (17:20 UTC)

Prognoza

Raport powstał 5 godziny i 50 minut temu, godzina 11:30 UTC
Prognoza ważna od 19 godzina 12 UTC do 20 godzina 12 UTC
Wiatr 10 kt od północno-północny zachód
Widzialność 10 km lub więcej
Brak chmur poniżej 1500 m i brak chmur cumulonimbus
Stopniowe zmiany
od 19 godzina 18 UTC do 19 godzina 21 UTC
Wiatr 2 kt z kierunków zmiennych

TAF: EPPO 191130Z 1912/2012 34010KT CAVOK BECMG 1918/1921 VRB02KT

Obserwacja i prognoza pogody dla ponad 4000 lotnisk (raport METAR i TAF).

Dostępne stacje oznaczono żółtymi i czerwonymi punktami na mapie.

Najedź kursorem aby zobaczyć nazwę stacji.

Kliknij aby zobaczyć obserwacje i prognozy pogody.

Aby zmienić mapę: kliknij na zielony przycisk z czarnym krzyżykiem, aby powiększyć; na zielony przycisk z myślnikiem, aby pomniejszyć; na zielone strzałki, aby przejść do map sąsiednich.


METAR-TAF: